sensor_id;sensor_type;location;lat;lon;timestamp;P1;durP1;ratioP1;P2;durP2;ratioP2
40355;SDS011;26061;50.044;19.930;2023-04-15T00:01:11;8.27;;;5.80;;
40355;SDS011;26061;50.044;19.930;2023-04-15T00:03:43;9.05;;;6.10;;
40355;SDS011;26061;50.044;19.930;2023-04-15T00:06:08;8.73;;;6.07;;
40355;SDS011;26061;50.044;19.930;2023-04-15T00:08:34;6.55;;;5.15;;
40355;SDS011;26061;50.044;19.930;2023-04-15T00:10:59;8.13;;;5.85;;
40355;SDS011;26061;50.044;19.930;2023-04-15T00:13:27;10.57;;;6.57;;
40355;SDS011;26061;50.044;19.930;2023-04-15T00:15:52;7.68;;;5.32;;
40355;SDS011;26061;50.044;19.930;2023-04-15T00:18:18;8.10;;;5.28;;
40355;SDS011;26061;50.044;19.930;2023-04-15T00:20:43;8.23;;;5.80;;
40355;SDS011;26061;50.044;19.930;2023-04-15T00:23:09;8.05;;;5.80;;
40355;SDS011;26061;50.044;19.930;2023-04-15T00:25:34;6.78;;;5.13;;
40355;SDS011;26061;50.044;19.930;2023-04-15T00:28:00;7.38;;;5.78;;
40355;SDS011;26061;50.044;19.930;2023-04-15T00:30:25;7.82;;;5.25;;
40355;SDS011;26061;50.044;19.930;2023-04-15T00:32:51;8.98;;;5.22;;
40355;SDS011;26061;50.044;19.930;2023-04-15T00:35:17;7.85;;;4.97;;
40355;SDS011;26061;50.044;19.930;2023-04-15T00:37:43;8.25;;;4.80;;
40355;SDS011;26061;50.044;19.930;2023-04-15T00:40:10;7.00;;;5.05;;
40355;SDS011;26061;50.044;19.930;2023-04-15T00:42:36;5.47;;;4.97;;
40355;SDS011;26061;50.044;19.930;2023-04-15T00:45:02;6.63;;;4.60;;
40355;SDS011;26061;50.044;19.930;2023-04-15T00:47:27;5.47;;;4.25;;
40355;SDS011;26061;50.044;19.930;2023-04-15T00:49:53;5.38;;;4.47;;
40355;SDS011;26061;50.044;19.930;2023-04-15T00:52:19;5.63;;;4.63;;
40355;SDS011;26061;50.044;19.930;2023-04-15T00:54:44;5.07;;;4.28;;
40355;SDS011;26061;50.044;19.930;2023-04-15T00:57:10;7.60;;;4.90;;
40355;SDS011;26061;50.044;19.930;2023-04-15T00:59:35;7.18;;;4.30;;
40355;SDS011;26061;50.044;19.930;2023-04-15T01:02:01;5.15;;;4.20;;
40355;SDS011;26061;50.044;19.930;2023-04-15T01:04:27;5.32;;;4.43;;
40355;SDS011;26061;50.044;19.930;2023-04-15T01:06:53;5.70;;;3.95;;
40355;SDS011;26061;50.044;19.930;2023-04-15T01:09:18;6.93;;;4.30;;
40355;SDS011;26061;50.044;19.930;2023-04-15T01:11:43;5.63;;;4.18;;
40355;SDS011;26061;50.044;19.930;2023-04-15T01:14:09;4.75;;;3.65;;
40355;SDS011;26061;50.044;19.930;2023-04-15T01:16:36;5.33;;;4.23;;
40355;SDS011;26061;50.044;19.930;2023-04-15T01:19:07;5.57;;;4.10;;
40355;SDS011;26061;50.044;19.930;2023-04-15T01:21:35;4.97;;;3.60;;
40355;SDS011;26061;50.044;19.930;2023-04-15T01:24:01;5.32;;;4.10;;
40355;SDS011;26061;50.044;19.930;2023-04-15T01:26:27;3.88;;;3.53;;
40355;SDS011;26061;50.044;19.930;2023-04-15T01:28:52;6.55;;;4.50;;
40355;SDS011;26061;50.044;19.930;2023-04-15T01:31:18;4.65;;;3.63;;
40355;SDS011;26061;50.044;19.930;2023-04-15T01:33:43;4.32;;;3.80;;
40355;SDS011;26061;50.044;19.930;2023-04-15T01:36:09;7.60;;;4.13;;
40355;SDS011;26061;50.044;19.930;2023-04-15T01:38:37;5.75;;;3.75;;
40355;SDS011;26061;50.044;19.930;2023-04-15T01:41:03;6.25;;;4.38;;
40355;SDS011;26061;50.044;19.930;2023-04-15T01:43:31;5.25;;;3.92;;
40355;SDS011;26061;50.044;19.930;2023-04-15T01:45:56;5.07;;;3.78;;
40355;SDS011;26061;50.044;19.930;2023-04-15T01:48:22;4.00;;;3.60;;
40355;SDS011;26061;50.044;19.930;2023-04-15T01:50:47;5.93;;;3.80;;
40355;SDS011;26061;50.044;19.930;2023-04-15T01:53:13;6.55;;;4.30;;
40355;SDS011;26061;50.044;19.930;2023-04-15T01:55:39;3.97;;;3.50;;
40355;SDS011;26061;50.044;19.930;2023-04-15T01:58:05;6.60;;;3.53;;
40355;SDS011;26061;50.044;19.930;2023-04-15T02:00:31;4.32;;;3.15;;
40355;SDS011;26061;50.044;19.930;2023-04-15T02:02:56;6.22;;;3.47;;
40355;SDS011;26061;50.044;19.930;2023-04-15T02:05:22;5.22;;;3.63;;
40355;SDS011;26061;50.044;19.930;2023-04-15T02:07:48;3.92;;;3.45;;
40355;SDS011;26061;50.044;19.930;2023-04-15T02:10:14;4.53;;;3.55;;
40355;SDS011;26061;50.044;19.930;2023-04-15T02:12:40;3.65;;;3.35;;
40355;SDS011;26061;50.044;19.930;2023-04-15T02:15:06;9.07;;;3.67;;
40355;SDS011;26061;50.044;19.930;2023-04-15T02:17:35;4.68;;;4.07;;
40355;SDS011;26061;50.044;19.930;2023-04-15T02:20:02;4.03;;;3.35;;
40355;SDS011;26061;50.044;19.930;2023-04-15T02:22:29;6.07;;;3.38;;
40355;SDS011;26061;50.044;19.930;2023-04-15T02:24:54;4.38;;;3.60;;
40355;SDS011;26061;50.044;19.930;2023-04-15T02:27:20;6.05;;;3.20;;
40355;SDS011;26061;50.044;19.930;2023-04-15T02:29:46;7.07;;;3.95;;
40355;SDS011;26061;50.044;19.930;2023-04-15T02:32:12;4.68;;;3.35;;
40355;SDS011;26061;50.044;19.930;2023-04-15T02:34:39;4.22;;;2.83;;
40355;SDS011;26061;50.044;19.930;2023-04-15T02:37:06;4.53;;;2.92;;
40355;SDS011;26061;50.044;19.930;2023-04-15T02:39:32;3.70;;;3.28;;
40355;SDS011;26061;50.044;19.930;2023-04-15T02:41:57;4.95;;;2.92;;
40355;SDS011;26061;50.044;19.930;2023-04-15T02:44:24;5.68;;;3.30;;
40355;SDS011;26061;50.044;19.930;2023-04-15T02:46:49;3.70;;;3.13;;
40355;SDS011;26061;50.044;19.930;2023-04-15T02:49:17;5.78;;;3.80;;
40355;SDS011;26061;50.044;19.930;2023-04-15T02:51:42;3.90;;;2.90;;
40355;SDS011;26061;50.044;19.930;2023-04-15T02:54:08;3.47;;;2.78;;
40355;SDS011;26061;50.044;19.930;2023-04-15T02:56:34;4.45;;;3.13;;
40355;SDS011;26061;50.044;19.930;2023-04-15T02:58:59;4.80;;;2.85;;
40355;SDS011;26061;50.044;19.930;2023-04-15T03:01:25;4.40;;;3.22;;
40355;SDS011;26061;50.044;19.930;2023-04-15T03:03:53;3.47;;;3.00;;
40355;SDS011;26061;50.044;19.930;2023-04-15T03:06:19;4.00;;;2.80;;
40355;SDS011;26061;50.044;19.930;2023-04-15T03:08:45;5.70;;;3.30;;
40355;SDS011;26061;50.044;19.930;2023-04-15T03:11:10;4.32;;;3.78;;
40355;SDS011;26061;50.044;19.930;2023-04-15T03:13:37;3.83;;;3.42;;
40355;SDS011;26061;50.044;19.930;2023-04-15T03:16:03;4.38;;;3.22;;
40355;SDS011;26061;50.044;19.930;2023-04-15T03:18:30;4.15;;;3.40;;
40355;SDS011;26061;50.044;19.930;2023-04-15T03:20:55;4.22;;;3.45;;
40355;SDS011;26061;50.044;19.930;2023-04-15T03:23:20;4.70;;;3.33;;
40355;SDS011;26061;50.044;19.930;2023-04-15T03:25:46;6.25;;;3.35;;
40355;SDS011;26061;50.044;19.930;2023-04-15T03:28:11;4.32;;;3.25;;
40355;SDS011;26061;50.044;19.930;2023-04-15T03:30:37;4.97;;;3.78;;
40355;SDS011;26061;50.044;19.930;2023-04-15T03:33:03;5.38;;;3.67;;
40355;SDS011;26061;50.044;19.930;2023-04-15T03:35:28;6.22;;;3.60;;
40355;SDS011;26061;50.044;19.930;2023-04-15T03:37:54;5.32;;;3.80;;
40355;SDS011;26061;50.044;19.930;2023-04-15T03:40:20;3.42;;;3.05;;
40355;SDS011;26061;50.044;19.930;2023-04-15T03:42:45;4.67;;;3.37;;
40355;SDS011;26061;50.044;19.930;2023-04-15T03:45:11;6.68;;;3.65;;
40355;SDS011;26061;50.044;19.930;2023-04-15T03:47:36;4.40;;;3.50;;
40355;SDS011;26061;50.044;19.930;2023-04-15T03:50:02;6.28;;;3.60;;
40355;SDS011;26061;50.044;19.930;2023-04-15T03:52:28;5.97;;;3.58;;
40355;SDS011;26061;50.044;19.930;2023-04-15T03:54:53;7.63;;;3.60;;
40355;SDS011;26061;50.044;19.930;2023-04-15T03:57:19;7.20;;;3.25;;
40355;SDS011;26061;50.044;19.930;2023-04-15T03:59:44;5.78;;;3.50;;
40355;SDS011;26061;50.044;19.930;2023-04-15T04:02:10;6.03;;;3.42;;
40355;SDS011;26061;50.044;19.930;2023-04-15T04:04:35;4.70;;;3.40;;
40355;SDS011;26061;50.044;19.930;2023-04-15T04:07:01;5.85;;;4.35;;
40355;SDS011;26061;50.044;19.930;2023-04-15T04:09:27;5.55;;;4.03;;
40355;SDS011;26061;50.044;19.930;2023-04-15T04:11:52;4.35;;;3.63;;
40355;SDS011;26061;50.044;19.930;2023-04-15T04:14:18;5.88;;;3.70;;
40355;SDS011;26061;50.044;19.930;2023-04-15T04:16:43;5.28;;;4.03;;
40355;SDS011;26061;50.044;19.930;2023-04-15T04:19:09;6.22;;;3.80;;
40355;SDS011;26061;50.044;19.930;2023-04-15T04:21:35;5.72;;;3.92;;
40355;SDS011;26061;50.044;19.930;2023-04-15T04:24:00;7.10;;;4.75;;
40355;SDS011;26061;50.044;19.930;2023-04-15T04:26:26;7.15;;;5.30;;
40355;SDS011;26061;50.044;19.930;2023-04-15T04:28:51;9.37;;;5.50;;
40355;SDS011;26061;50.044;19.930;2023-04-15T04:31:17;10.38;;;6.85;;
40355;SDS011;26061;50.044;19.930;2023-04-15T04:33:42;8.63;;;5.87;;
40355;SDS011;26061;50.044;19.930;2023-04-15T04:36:08;7.97;;;6.20;;
40355;SDS011;26061;50.044;19.930;2023-04-15T04:38:34;7.87;;;6.37;;
40355;SDS011;26061;50.044;19.930;2023-04-15T04:40:59;11.40;;;7.25;;
40355;SDS011;26061;50.044;19.930;2023-04-15T04:43:25;10.53;;;7.30;;
40355;SDS011;26061;50.044;19.930;2023-04-15T04:45:51;11.80;;;7.40;;
40355;SDS011;26061;50.044;19.930;2023-04-15T04:48:16;13.98;;;8.02;;
40355;SDS011;26061;50.044;19.930;2023-04-15T04:50:43;17.92;;;11.27;;
40355;SDS011;26061;50.044;19.930;2023-04-15T04:53:08;16.85;;;8.82;;
40355;SDS011;26061;50.044;19.930;2023-04-15T04:55:34;15.95;;;10.68;;
40355;SDS011;26061;50.044;19.930;2023-04-15T04:58:01;15.38;;;10.48;;
40355;SDS011;26061;50.044;19.930;2023-04-15T05:00:27;18.73;;;12.05;;
40355;SDS011;26061;50.044;19.930;2023-04-15T05:02:53;16.98;;;10.52;;
40355;SDS011;26061;50.044;19.930;2023-04-15T05:05:18;13.63;;;8.73;;
40355;SDS011;26061;50.044;19.930;2023-04-15T05:07:44;13.93;;;7.95;;
40355;SDS011;26061;50.044;19.930;2023-04-15T05:10:09;11.95;;;8.48;;
40355;SDS011;26061;50.044;19.930;2023-04-15T05:12:35;12.95;;;8.25;;
40355;SDS011;26061;50.044;19.930;2023-04-15T05:15:03;12.93;;;7.88;;
40355;SDS011;26061;50.044;19.930;2023-04-15T05:17:28;13.33;;;8.33;;
40355;SDS011;26061;50.044;19.930;2023-04-15T05:19:56;12.52;;;8.70;;
40355;SDS011;26061;50.044;19.930;2023-04-15T05:22:21;14.30;;;8.98;;
40355;SDS011;26061;50.044;19.930;2023-04-15T05:24:47;14.75;;;8.80;;
40355;SDS011;26061;50.044;19.930;2023-04-15T05:27:12;15.68;;;8.82;;
40355;SDS011;26061;50.044;19.930;2023-04-15T05:29:38;15.07;;;9.55;;
40355;SDS011;26061;50.044;19.930;2023-04-15T05:32:03;14.80;;;9.07;;
40355;SDS011;26061;50.044;19.930;2023-04-15T05:34:29;14.38;;;8.88;;
40355;SDS011;26061;50.044;19.930;2023-04-15T05:36:55;15.68;;;8.75;;
40355;SDS011;26061;50.044;19.930;2023-04-15T05:39:21;14.23;;;8.67;;
40355;SDS011;26061;50.044;19.930;2023-04-15T05:41:46;15.48;;;8.52;;
40355;SDS011;26061;50.044;19.930;2023-04-15T05:44:12;13.83;;;9.00;;
40355;SDS011;26061;50.044;19.930;2023-04-15T05:46:37;16.13;;;9.05;;
40355;SDS011;26061;50.044;19.930;2023-04-15T05:49:03;15.43;;;9.55;;
40355;SDS011;26061;50.044;19.930;2023-04-15T05:51:28;15.93;;;9.95;;
40355;SDS011;26061;50.044;19.930;2023-04-15T05:53:54;17.35;;;9.15;;
40355;SDS011;26061;50.044;19.930;2023-04-15T05:56:19;20.95;;;10.85;;
40355;SDS011;26061;50.044;19.930;2023-04-15T05:58:45;19.35;;;10.63;;
40355;SDS011;26061;50.044;19.930;2023-04-15T06:01:11;18.60;;;9.88;;
40355;SDS011;26061;50.044;19.930;2023-04-15T06:03:37;21.67;;;10.95;;
40355;SDS011;26061;50.044;19.930;2023-04-15T06:06:03;20.33;;;11.23;;
40355;SDS011;26061;50.044;19.930;2023-04-15T06:08:28;22.17;;;11.55;;
40355;SDS011;26061;50.044;19.930;2023-04-15T06:10:54;20.17;;;10.85;;
40355;SDS011;26061;50.044;19.930;2023-04-15T06:13:20;23.57;;;11.50;;
40355;SDS011;26061;50.044;19.930;2023-04-15T06:15:45;24.33;;;13.05;;
40355;SDS011;26061;50.044;19.930;2023-04-15T06:18:11;29.00;;;13.70;;
40355;SDS011;26061;50.044;19.930;2023-04-15T06:20:37;31.27;;;14.27;;
40355;SDS011;26061;50.044;19.930;2023-04-15T06:23:02;33.30;;;13.93;;
40355;SDS011;26061;50.044;19.930;2023-04-15T06:25:28;27.20;;;13.27;;
40355;SDS011;26061;50.044;19.930;2023-04-15T06:27:54;22.38;;;11.13;;
40355;SDS011;26061;50.044;19.930;2023-04-15T06:30:19;25.77;;;12.82;;
40355;SDS011;26061;50.044;19.930;2023-04-15T06:32:45;21.40;;;12.13;;
40355;SDS011;26061;50.044;19.930;2023-04-15T06:35:10;21.55;;;10.88;;
40355;SDS011;26061;50.044;19.930;2023-04-15T06:37:36;18.70;;;10.70;;
40355;SDS011;26061;50.044;19.930;2023-04-15T06:40:01;16.73;;;10.30;;
40355;SDS011;26061;50.044;19.930;2023-04-15T06:42:29;19.65;;;9.98;;
40355;SDS011;26061;50.044;19.930;2023-04-15T06:44:55;18.55;;;10.27;;
40355;SDS011;26061;50.044;19.930;2023-04-15T06:47:21;17.55;;;9.82;;
40355;SDS011;26061;50.044;19.930;2023-04-15T06:49:46;21.73;;;10.77;;
40355;SDS011;26061;50.044;19.930;2023-04-15T06:52:12;16.73;;;9.80;;
40355;SDS011;26061;50.044;19.930;2023-04-15T06:54:37;15.35;;;9.70;;
40355;SDS011;26061;50.044;19.930;2023-04-15T06:57:03;19.48;;;9.10;;
40355;SDS011;26061;50.044;19.930;2023-04-15T06:59:28;15.32;;;8.05;;
40355;SDS011;26061;50.044;19.930;2023-04-15T07:01:54;12.27;;;7.63;;
40355;SDS011;26061;50.044;19.930;2023-04-15T07:04:19;14.07;;;6.88;;
40355;SDS011;26061;50.044;19.930;2023-04-15T07:06:45;8.57;;;6.05;;
40355;SDS011;26061;50.044;19.930;2023-04-15T07:09:10;10.13;;;6.00;;
40355;SDS011;26061;50.044;19.930;2023-04-15T07:11:36;8.75;;;5.50;;
40355;SDS011;26061;50.044;19.930;2023-04-15T07:14:01;9.30;;;5.20;;
40355;SDS011;26061;50.044;19.930;2023-04-15T07:16:28;9.35;;;5.28;;
40355;SDS011;26061;50.044;19.930;2023-04-15T07:18:53;7.43;;;4.78;;
40355;SDS011;26061;50.044;19.930;2023-04-15T07:21:20;7.65;;;4.50;;
40355;SDS011;26061;50.044;19.930;2023-04-15T07:23:45;9.90;;;5.35;;
40355;SDS011;26061;50.044;19.930;2023-04-15T07:26:11;6.32;;;4.50;;
40355;SDS011;26061;50.044;19.930;2023-04-15T07:28:37;7.63;;;4.30;;
40355;SDS011;26061;50.044;19.930;2023-04-15T07:31:02;9.52;;;5.22;;
40355;SDS011;26061;50.044;19.930;2023-04-15T07:33:28;6.18;;;4.30;;
40355;SDS011;26061;50.044;19.930;2023-04-15T07:35:54;14.63;;;6.90;;
40355;SDS011;26061;50.044;19.930;2023-04-15T07:38:19;16.85;;;9.05;;
40355;SDS011;26061;50.044;19.930;2023-04-15T07:40:45;13.00;;;6.93;;
40355;SDS011;26061;50.044;19.930;2023-04-15T07:43:10;10.65;;;7.32;;
40355;SDS011;26061;50.044;19.930;2023-04-15T07:45:37;9.38;;;5.10;;
40355;SDS011;26061;50.044;19.930;2023-04-15T07:48:03;6.75;;;4.60;;
40355;SDS011;26061;50.044;19.930;2023-04-15T07:50:29;5.93;;;4.47;;
40355;SDS011;26061;50.044;19.930;2023-04-15T07:52:54;6.10;;;4.00;;
40355;SDS011;26061;50.044;19.930;2023-04-15T07:55:20;12.48;;;6.95;;
40355;SDS011;26061;50.044;19.930;2023-04-15T07:57:47;6.45;;;3.70;;
40355;SDS011;26061;50.044;19.930;2023-04-15T08:00:13;8.35;;;4.05;;
40355;SDS011;26061;50.044;19.930;2023-04-15T08:02:39;7.60;;;5.00;;
40355;SDS011;26061;50.044;19.930;2023-04-15T08:05:04;5.47;;;3.38;;
40355;SDS011;26061;50.044;19.930;2023-04-15T08:07:31;4.85;;;3.35;;
40355;SDS011;26061;50.044;19.930;2023-04-15T08:09:57;3.58;;;2.97;;
40355;SDS011;26061;50.044;19.930;2023-04-15T08:12:22;3.95;;;2.90;;
40355;SDS011;26061;50.044;19.930;2023-04-15T08:14:49;3.92;;;2.72;;
40355;SDS011;26061;50.044;19.930;2023-04-15T08:17:14;3.35;;;2.83;;
40355;SDS011;26061;50.044;19.930;2023-04-15T08:19:40;5.00;;;2.83;;
40355;SDS011;26061;50.044;19.930;2023-04-15T08:22:06;4.38;;;2.95;;
40355;SDS011;26061;50.044;19.930;2023-04-15T08:24:33;2.65;;;2.28;;
40355;SDS011;26061;50.044;19.930;2023-04-15T08:26:58;2.83;;;2.50;;
40355;SDS011;26061;50.044;19.930;2023-04-15T08:29:24;2.95;;;2.10;;
40355;SDS011;26061;50.044;19.930;2023-04-15T08:31:49;3.15;;;2.58;;
40355;SDS011;26061;50.044;19.930;2023-04-15T08:34:15;4.53;;;2.30;;
40355;SDS011;26061;50.044;19.930;2023-04-15T08:36:41;2.60;;;2.25;;
40355;SDS011;26061;50.044;19.930;2023-04-15T08:39:07;2.13;;;1.90;;
40355;SDS011;26061;50.044;19.930;2023-04-15T08:41:45;3.22;;;2.15;;
40355;SDS011;26061;50.044;19.930;2023-04-15T08:44:14;4.80;;;2.03;;
40355;SDS011;26061;50.044;19.930;2023-04-15T08:46:40;2.30;;;2.10;;
40355;SDS011;26061;50.044;19.930;2023-04-15T08:49:08;3.42;;;1.48;;
40355;SDS011;26061;50.044;19.930;2023-04-15T08:51:34;2.10;;;1.70;;
40355;SDS011;26061;50.044;19.930;2023-04-15T08:54:00;3.25;;;1.92;;
40355;SDS011;26061;50.044;19.930;2023-04-15T08:56:26;1.88;;;1.67;;
40355;SDS011;26061;50.044;19.930;2023-04-15T08:58:52;3.00;;;1.90;;
40355;SDS011;26061;50.044;19.930;2023-04-15T09:01:18;1.60;;;1.50;;
40355;SDS011;26061;50.044;19.930;2023-04-15T09:03:43;2.22;;;1.40;;
40355;SDS011;26061;50.044;19.930;2023-04-15T09:06:10;1.35;;;1.10;;
40355;SDS011;26061;50.044;19.930;2023-04-15T09:08:36;1.35;;;1.25;;
40355;SDS011;26061;50.044;19.930;2023-04-15T09:11:01;13.73;;;2.30;;
40355;SDS011;26061;50.044;19.930;2023-04-15T09:13:27;1.33;;;1.17;;
40355;SDS011;26061;50.044;19.930;2023-04-15T09:15:53;1.40;;;1.10;;
40355;SDS011;26061;50.044;19.930;2023-04-15T09:18:29;1.30;;;1.10;;
40355;SDS011;26061;50.044;19.930;2023-04-15T09:20:55;0.80;;;0.80;;
40355;SDS011;26061;50.044;19.930;2023-04-15T09:23:21;1.20;;;1.10;;
40355;SDS011;26061;50.044;19.930;2023-04-15T09:25:47;0.90;;;0.90;;
40355;SDS011;26061;50.044;19.930;2023-04-15T09:28:13;0.80;;;0.70;;
40355;SDS011;26061;50.044;19.930;2023-04-15T09:30:39;1.52;;;0.93;;
40355;SDS011;26061;50.044;19.930;2023-04-15T09:33:07;0.88;;;0.70;;
40355;SDS011;26061;50.044;19.930;2023-04-15T09:35:35;1.08;;;0.70;;
40355;SDS011;26061;50.044;19.930;2023-04-15T09:38:10;0.90;;;0.70;;
40355;SDS011;26061;50.044;19.930;2023-04-15T09:40:40;0.77;;;0.70;;
40355;SDS011;26061;50.044;19.930;2023-04-15T09:43:07;0.88;;;0.73;;
40355;SDS011;26061;50.044;19.930;2023-04-15T09:45:33;0.50;;;0.50;;
40355;SDS011;26061;50.044;19.930;2023-04-15T09:48:00;1.27;;;0.70;;
40355;SDS011;26061;50.044;19.930;2023-04-15T09:50:39;1.95;;;1.00;;
40355;SDS011;26061;50.044;19.930;2023-04-15T09:53:05;1.77;;;0.80;;
40355;SDS011;26061;50.044;19.930;2023-04-15T09:55:33;1.40;;;1.20;;
40355;SDS011;26061;50.044;19.930;2023-04-15T09:57:59;0.70;;;0.70;;
40355;SDS011;26061;50.044;19.930;2023-04-15T10:00:24;0.70;;;0.70;;
40355;SDS011;26061;50.044;19.930;2023-04-15T10:02:50;1.30;;;0.85;;
40355;SDS011;26061;50.044;19.930;2023-04-15T10:05:17;0.90;;;0.75;;
40355;SDS011;26061;50.044;19.930;2023-04-15T10:07:42;3.67;;;0.70;;
40355;SDS011;26061;50.044;19.930;2023-04-15T10:10:08;1.92;;;0.50;;
40355;SDS011;26061;50.044;19.930;2023-04-15T10:12:38;1.00;;;0.60;;
40355;SDS011;26061;50.044;19.930;2023-04-15T10:15:05;0.75;;;0.70;;
40355;SDS011;26061;50.044;19.930;2023-04-15T10:17:31;0.57;;;0.57;;
40355;SDS011;26061;50.044;19.930;2023-04-15T10:20:02;0.80;;;0.70;;
40355;SDS011;26061;50.044;19.930;2023-04-15T10:22:29;0.82;;;0.60;;
40355;SDS011;26061;50.044;19.930;2023-04-15T10:24:55;0.80;;;0.70;;
40355;SDS011;26061;50.044;19.930;2023-04-15T10:27:22;0.73;;;0.73;;
40355;SDS011;26061;50.044;19.930;2023-04-15T10:29:50;0.95;;;0.70;;
40355;SDS011;26061;50.044;19.930;2023-04-15T10:32:19;0.63;;;0.60;;
40355;SDS011;26061;50.044;19.930;2023-04-15T10:34:48;0.77;;;0.75;;
40355;SDS011;26061;50.044;19.930;2023-04-15T10:37:22;0.63;;;0.52;;
40355;SDS011;26061;50.044;19.930;2023-04-15T10:39:57;0.70;;;0.70;;
40355;SDS011;26061;50.044;19.930;2023-04-15T10:42:22;0.90;;;0.70;;
40355;SDS011;26061;50.044;19.930;2023-04-15T10:44:48;1.02;;;0.82;;
40355;SDS011;26061;50.044;19.930;2023-04-15T10:47:16;0.95;;;0.80;;
40355;SDS011;26061;50.044;19.930;2023-04-15T10:49:49;1.02;;;0.93;;
40355;SDS011;26061;50.044;19.930;2023-04-15T10:52:16;1.17;;;0.80;;
40355;SDS011;26061;50.044;19.930;2023-04-15T10:54:41;2.17;;;1.38;;
40355;SDS011;26061;50.044;19.930;2023-04-15T10:57:14;0.82;;;0.75;;
40355;SDS011;26061;50.044;19.930;2023-04-15T11:00:01;0.77;;;0.60;;
40355;SDS011;26061;50.044;19.930;2023-04-15T11:08:08;1.13;;;1.02;;
40355;SDS011;26061;50.044;19.930;2023-04-15T11:13:01;1.08;;;0.77;;
40355;SDS011;26061;50.044;19.930;2023-04-15T11:17:55;1.67;;;0.98;;
40355;SDS011;26061;50.044;19.930;2023-04-15T11:20:21;1.30;;;1.20;;
40355;SDS011;26061;50.044;19.930;2023-04-15T11:22:48;1.08;;;0.85;;
40355;SDS011;26061;50.044;19.930;2023-04-15T11:25:27;1.20;;;0.80;;
40355;SDS011;26061;50.044;19.930;2023-04-15T11:27:53;1.40;;;1.30;;
40355;SDS011;26061;50.044;19.930;2023-04-15T11:30:19;1.90;;;1.10;;
40355;SDS011;26061;50.044;19.930;2023-04-15T11:32:49;1.02;;;0.93;;
40355;SDS011;26061;50.044;19.930;2023-04-15T11:35:18;1.20;;;1.10;;
40355;SDS011;26061;50.044;19.930;2023-04-15T11:37:44;1.02;;;0.95;;
40355;SDS011;26061;50.044;19.930;2023-04-15T11:40:10;1.30;;;1.15;;
40355;SDS011;26061;50.044;19.930;2023-04-15T11:42:36;2.70;;;1.38;;
40355;SDS011;26061;50.044;19.930;2023-04-15T11:45:05;1.67;;;1.00;;
40355;SDS011;26061;50.044;19.930;2023-04-15T11:47:31;1.40;;;1.20;;
40355;SDS011;26061;50.044;19.930;2023-04-15T11:49:57;1.20;;;1.10;;
40355;SDS011;26061;50.044;19.930;2023-04-15T11:52:37;1.30;;;1.20;;
40355;SDS011;26061;50.044;19.930;2023-04-15T11:55:03;2.03;;;1.20;;
40355;SDS011;26061;50.044;19.930;2023-04-15T11:57:31;1.15;;;1.10;;
40355;SDS011;26061;50.044;19.930;2023-04-15T11:59:58;1.20;;;1.10;;
40355;SDS011;26061;50.044;19.930;2023-04-15T12:02:30;3.10;;;1.15;;
40355;SDS011;26061;50.044;19.930;2023-04-15T12:05:06;0.82;;;0.82;;
40355;SDS011;26061;50.044;19.930;2023-04-15T12:07:32;1.52;;;1.27;;
40355;SDS011;26061;50.044;19.930;2023-04-15T12:09:58;1.27;;;1.00;;
40355;SDS011;26061;50.044;19.930;2023-04-15T12:12:27;0.70;;;0.70;;
40355;SDS011;26061;50.044;19.930;2023-04-15T12:14:53;0.80;;;0.70;;
40355;SDS011;26061;50.044;19.930;2023-04-15T12:17:18;1.15;;;0.80;;
40355;SDS011;26061;50.044;19.930;2023-04-15T12:19:44;1.10;;;0.80;;
40355;SDS011;26061;50.044;19.930;2023-04-15T12:22:11;2.17;;;1.00;;
40355;SDS011;26061;50.044;19.930;2023-04-15T12:24:37;1.00;;;1.00;;
40355;SDS011;26061;50.044;19.930;2023-04-15T12:27:03;1.48;;;1.05;;
40355;SDS011;26061;50.044;19.930;2023-04-15T12:29:29;1.23;;;0.93;;
40355;SDS011;26061;50.044;19.930;2023-04-15T12:31:56;0.80;;;0.80;;
40355;SDS011;26061;50.044;19.930;2023-04-15T12:34:25;0.70;;;0.70;;
40355;SDS011;26061;50.044;19.930;2023-04-15T12:36:51;1.77;;;0.90;;
40355;SDS011;26061;50.044;19.930;2023-04-15T12:39:16;0.70;;;0.70;;
40355;SDS011;26061;50.044;19.930;2023-04-15T12:41:42;1.20;;;1.05;;
40355;SDS011;26061;50.044;19.930;2023-04-15T12:44:07;0.90;;;0.82;;
40355;SDS011;26061;50.044;19.930;2023-04-15T12:46:33;1.85;;;0.90;;
40355;SDS011;26061;50.044;19.930;2023-04-15T12:48:59;2.28;;;1.25;;
40355;SDS011;26061;50.044;19.930;2023-04-15T12:51:25;1.33;;;1.00;;
40355;SDS011;26061;50.044;19.930;2023-04-15T12:53:51;2.05;;;1.35;;
40355;SDS011;26061;50.044;19.930;2023-04-15T12:56:17;1.00;;;0.90;;
40355;SDS011;26061;50.044;19.930;2023-04-15T12:58:42;1.48;;;0.85;;
40355;SDS011;26061;50.044;19.930;2023-04-15T13:01:08;1.20;;;1.00;;
40355;SDS011;26061;50.044;19.930;2023-04-15T13:03:34;1.38;;;0.90;;
40355;SDS011;26061;50.044;19.930;2023-04-15T13:06:00;0.80;;;0.75;;
40355;SDS011;26061;50.044;19.930;2023-04-15T13:08:26;2.22;;;0.95;;
40355;SDS011;26061;50.044;19.930;2023-04-15T13:10:52;1.33;;;1.10;;
40355;SDS011;26061;50.044;19.930;2023-04-15T13:13:18;0.80;;;0.80;;
40355;SDS011;26061;50.044;19.930;2023-04-15T13:15:43;0.98;;;0.80;;
40355;SDS011;26061;50.044;19.930;2023-04-15T13:18:10;1.33;;;1.02;;
40355;SDS011;26061;50.044;19.930;2023-04-15T13:20:37;0.90;;;0.90;;
40355;SDS011;26061;50.044;19.930;2023-04-15T13:23:09;1.10;;;0.80;;
40355;SDS011;26061;50.044;19.930;2023-04-15T13:25:35;0.73;;;0.73;;
40355;SDS011;26061;50.044;19.930;2023-04-15T13:28:00;1.48;;;1.02;;
40355;SDS011;26061;50.044;19.930;2023-04-15T13:30:27;3.42;;;2.08;;
40355;SDS011;26061;50.044;19.930;2023-04-15T13:32:52;4.78;;;2.90;;
40355;SDS011;26061;50.044;19.930;2023-04-15T13:35:18;3.53;;;2.95;;
40355;SDS011;26061;50.044;19.930;2023-04-15T13:37:44;5.05;;;2.90;;
40355;SDS011;26061;50.044;19.930;2023-04-15T13:40:10;4.53;;;3.25;;
40355;SDS011;26061;50.044;19.930;2023-04-15T13:42:35;4.32;;;3.00;;
40355;SDS011;26061;50.044;19.930;2023-04-15T13:45:01;3.47;;;2.50;;
40355;SDS011;26061;50.044;19.930;2023-04-15T13:47:27;4.78;;;3.50;;
40355;SDS011;26061;50.044;19.930;2023-04-15T13:49:52;5.40;;;3.22;;
40355;SDS011;26061;50.044;19.930;2023-04-15T13:52:20;4.93;;;3.35;;
40355;SDS011;26061;50.044;19.930;2023-04-15T13:54:47;4.65;;;2.80;;
40355;SDS011;26061;50.044;19.930;2023-04-15T13:57:12;3.95;;;3.17;;
40355;SDS011;26061;50.044;19.930;2023-04-15T13:59:39;4.35;;;3.03;;
40355;SDS011;26061;50.044;19.930;2023-04-15T14:02:05;3.20;;;2.92;;
40355;SDS011;26061;50.044;19.930;2023-04-15T14:04:31;6.35;;;3.20;;
40355;SDS011;26061;50.044;19.930;2023-04-15T14:06:57;2.53;;;2.28;;
40355;SDS011;26061;50.044;19.930;2023-04-15T14:09:23;2.38;;;2.17;;
40355;SDS011;26061;50.044;19.930;2023-04-15T14:11:48;4.65;;;2.83;;
40355;SDS011;26061;50.044;19.930;2023-04-15T14:14:14;2.83;;;2.05;;
40355;SDS011;26061;50.044;19.930;2023-04-15T14:16:39;2.53;;;2.33;;
40355;SDS011;26061;50.044;19.930;2023-04-15T14:19:05;2.92;;;2.38;;
40355;SDS011;26061;50.044;19.930;2023-04-15T14:21:30;2.05;;;1.85;;
40355;SDS011;26061;50.044;19.930;2023-04-15T14:23:57;3.38;;;2.22;;
40355;SDS011;26061;50.044;19.930;2023-04-15T14:26:22;2.63;;;2.22;;
40355;SDS011;26061;50.044;19.930;2023-04-15T14:28:48;2.30;;;1.98;;
40355;SDS011;26061;50.044;19.930;2023-04-15T14:31:13;2.17;;;1.98;;
40355;SDS011;26061;50.044;19.930;2023-04-15T14:33:39;4.88;;;2.03;;
40355;SDS011;26061;50.044;19.930;2023-04-15T14:36:05;2.35;;;1.95;;